createdAt,value
2018-06-20T00:01:56.271Z,18.07
2018-06-20T00:05:06.988Z,19.87
2018-06-20T00:08:17.836Z,15.73
2018-06-20T00:11:28.476Z,16.30
2018-06-20T00:14:39.195Z,13.17
2018-06-20T00:17:50.078Z,15.00
2018-06-20T00:21:00.487Z,16.97
2018-06-20T00:24:10.942Z,19.20
2018-06-20T00:27:21.851Z,18.53
2018-06-20T00:30:32.748Z,15.13
2018-06-20T00:33:43.732Z,13.13
2018-06-20T00:36:54.234Z,20.97
2018-06-20T00:40:05.105Z,15.75
2018-06-20T00:43:16.411Z,15.98
2018-06-20T00:46:27.099Z,15.13
2018-06-20T00:49:38.007Z,16.20
2018-06-20T00:52:48.433Z,15.93
2018-06-20T00:56:16.248Z,18.63
2018-06-20T00:59:26.850Z,18.07
2018-06-20T01:02:37.806Z,16.50
2018-06-20T01:05:48.297Z,14.87
2018-06-20T01:08:59.929Z,17.40
2018-06-20T01:12:10.222Z,24.57
2018-06-20T01:15:20.738Z,18.43
2018-06-20T01:18:31.426Z,21.57
2018-06-20T01:21:42.878Z,22.37
2018-06-20T01:24:53.544Z,18.80
2018-06-20T01:28:04.184Z,18.80
2018-06-20T01:31:16.320Z,26.00
2018-06-20T01:34:26.760Z,20.30
2018-06-20T01:37:37.404Z,16.80
2018-06-20T01:40:49.981Z,18.83
2018-06-20T01:44:00.430Z,21.77
2018-06-20T01:47:11.284Z,24.63
2018-06-20T01:50:27.856Z,25.83
2018-06-20T01:53:39.257Z,21.37
2018-06-20T01:56:50.519Z,22.50
2018-06-20T02:00:01.385Z,17.57
2018-06-20T02:03:12.327Z,29.47
2018-06-20T02:06:23.051Z,24.27
2018-06-20T02:09:33.519Z,26.30
2018-06-20T02:12:44.427Z,28.03
2018-06-20T02:15:55.403Z,30.20
2018-06-20T02:19:06.256Z,32.77
2018-06-20T02:22:16.778Z,29.97
2018-06-20T02:25:27.231Z,30.43
2018-06-20T02:28:38.053Z,34.23
2018-06-20T02:31:48.521Z,35.13
2018-06-20T02:34:59.255Z,28.20
2018-06-20T02:38:09.589Z,35.37
2018-06-20T02:41:20.337Z,31.67
2018-06-20T02:44:31.145Z,29.77
2018-06-20T02:47:43.065Z,32.53
2018-06-20T02:50:53.739Z,29.23
2018-06-20T02:54:04.229Z,34.20
2018-06-20T02:57:14.859Z,28.20
2018-06-20T03:00:25.668Z,32.03
2018-06-20T03:03:36.371Z,30.17
2018-06-20T03:06:46.816Z,31.93
2018-06-20T03:09:57.327Z,31.43
2018-06-20T03:13:08.150Z,31.80
2018-06-20T03:16:18.440Z,27.47
2018-06-20T03:19:30.181Z,31.73
2018-06-20T03:22:41.016Z,32.07
2018-06-20T03:25:51.719Z,30.67
2018-06-20T03:29:02.982Z,28.27
2018-06-20T03:32:13.812Z,35.07
2018-06-20T03:35:24.859Z,32.83
2018-06-20T03:38:35.919Z,39.17
2018-06-20T03:41:46.747Z,35.83
2018-06-20T03:44:57.203Z,35.87
2018-06-20T03:48:07.760Z,34.83
2018-06-20T03:51:21.637Z,36.13
2018-06-20T03:54:33.570Z,37.27
2018-06-20T03:57:44.263Z,41.13
2018-06-20T04:00:56.720Z,38.23
2018-06-20T04:04:07.081Z,41.77
2018-06-20T04:07:17.354Z,41.57
2018-06-20T04:10:27.853Z,37.27
2018-06-20T04:13:38.292Z,39.37
2018-06-20T04:16:49.123Z,39.57
2018-06-20T04:19:59.973Z,38.67
2018-06-20T04:23:10.668Z,38.97
2018-06-20T04:26:21.570Z,43.03
2018-06-20T04:29:32.085Z,39.20
2018-06-20T04:32:42.500Z,39.50
2018-06-20T04:35:52.770Z,41.93
2018-06-20T04:39:04.533Z,41.70
2018-06-20T04:42:15.076Z,47.47
2018-06-20T04:45:26.537Z,41.27
2018-06-20T04:48:37.104Z,47.57
2018-06-20T04:51:47.680Z,43.20
2018-06-20T04:54:59.924Z,43.80
2018-06-20T04:58:11.024Z,46.23
2018-06-20T05:01:21.787Z,52.20
2018-06-20T05:04:32.451Z,48.83
2018-06-20T05:07:43.527Z,48.67
2018-06-20T05:10:59.368Z,48.47
2018-06-20T05:14:10.515Z,47.33
2018-06-20T05:17:23.293Z,44.37
2018-06-20T05:20:36.444Z,45.03
2018-06-20T05:23:47.470Z,47.73
2018-06-20T05:26:58.153Z,44.97
2018-06-20T05:30:09.150Z,49.77
2018-06-20T05:33:21.700Z,46.07
2018-06-20T05:36:32.775Z,40.53
2018-06-20T05:39:46.484Z,41.03
2018-06-20T05:42:57.058Z,43.40
2018-06-20T05:46:07.503Z,38.13
2018-06-20T05:49:19.596Z,40.90
2018-06-20T05:52:32.020Z,41.10
2018-06-20T05:55:43.124Z,38.13
2018-06-20T05:58:53.599Z,37.50
2018-06-20T06:02:04.079Z,38.77
2018-06-20T06:05:14.460Z,37.63
2018-06-20T06:08:25.008Z,36.00
2018-06-20T06:11:36.441Z,35.93
2018-06-20T06:14:47.165Z,36.68
2018-06-20T06:17:57.745Z,35.35
2018-06-20T06:21:08.632Z,38.17
2018-06-20T06:24:19.141Z,34.63
2018-06-20T06:27:30.437Z,41.42
2018-06-20T06:30:42.179Z,36.60
2018-06-20T06:33:53.568Z,31.80
2018-06-20T06:37:03.947Z,31.10
2018-06-20T06:40:14.766Z,23.98
2018-06-20T06:43:25.394Z,30.43
2018-06-20T06:46:36.756Z,23.90
2018-06-20T06:49:47.145Z,26.67
2018-06-20T06:52:57.417Z,26.35
2018-06-20T06:56:08.006Z,22.97
2018-06-20T06:59:18.580Z,25.10
2018-06-20T07:02:28.872Z,24.73
2018-06-20T07:05:39.927Z,26.27
2018-06-20T07:08:51.014Z,23.62
2018-06-20T07:12:02.065Z,23.87
2018-06-20T07:15:12.281Z,24.65
2018-06-20T07:18:22.855Z,25.35
2018-06-20T07:21:33.608Z,19.53
2018-06-20T07:24:44.871Z,23.70
2018-06-20T07:27:55.279Z,21.77
2018-06-20T07:31:08.817Z,21.67
2018-06-20T07:34:19.470Z,23.10
2018-06-20T07:37:30.236Z,22.97
2018-06-20T07:40:40.515Z,20.37
2018-06-20T07:43:51.476Z,24.07
2018-06-20T07:47:02.077Z,18.20
2018-06-20T07:50:12.459Z,24.00
2018-06-20T07:53:22.959Z,20.57
2018-06-20T07:56:34.239Z,19.40
2018-06-20T07:59:50.128Z,23.80
2018-06-20T08:03:16.778Z,22.20
2018-06-20T08:06:32.562Z,24.02
2018-06-20T08:09:48.493Z,24.95
2018-06-20T08:13:04.347Z,22.22
2018-06-20T08:16:19.838Z,25.00
2018-06-20T08:19:35.563Z,22.85
2018-06-20T08:22:46.633Z,24.77
2018-06-20T08:25:57.734Z,25.43
2018-06-20T08:29:08.574Z,24.43
2018-06-20T08:32:19.263Z,24.90
2018-06-20T08:35:33.113Z,23.42
2018-06-20T08:38:43.815Z,20.52
2018-06-20T08:41:54.351Z,21.50
2018-06-20T08:45:04.669Z,21.57
2018-06-20T08:48:15.495Z,18.73
2018-06-20T08:51:25.963Z,17.10
2018-06-20T08:54:36.707Z,19.42
2018-06-20T08:57:47.188Z,16.40
2018-06-20T09:01:03.298Z,17.80
2018-06-20T09:04:19.868Z,17.90
2018-06-20T09:07:35.451Z,18.77
2018-06-20T09:10:51.639Z,17.77
2018-06-20T09:14:07.267Z,17.82
2018-06-20T09:17:22.968Z,16.55
2018-06-20T09:20:33.712Z,18.30
2018-06-20T09:23:48.921Z,15.32
2018-06-20T09:26:59.654Z,15.53
2018-06-20T09:30:10.345Z,13.62
2018-06-20T09:33:20.705Z,13.35
2018-06-20T09:36:31.704Z,12.95
2018-06-20T09:39:42.528Z,13.32
2018-06-20T09:42:52.723Z,13.93
2018-06-20T09:46:03.627Z,16.55
2018-06-20T09:49:14.038Z,13.03
2018-06-20T09:52:24.619Z,12.37
2018-06-20T09:55:35.360Z,13.60
2018-06-20T09:58:46.807Z,13.88
2018-06-20T10:02:02.459Z,14.20
2018-06-20T10:05:18.339Z,12.58
2018-06-20T10:08:34.183Z,13.62
2018-06-20T10:11:50.356Z,13.45
2018-06-20T10:15:00.944Z,12.68
2018-06-20T10:18:12.013Z,12.68
2018-06-20T10:21:22.669Z,12.65
2018-06-20T10:24:33.364Z,13.10
2018-06-20T10:27:44.002Z,12.37
2018-06-20T10:30:54.748Z,12.18
2018-06-20T10:34:05.626Z,11.95
2018-06-20T10:37:16.567Z,11.57
2018-06-20T10:40:27.239Z,11.57
2018-06-20T10:43:38.041Z,11.40
2018-06-20T10:46:53.857Z,11.63
2018-06-20T10:50:04.848Z,10.98
2018-06-20T10:53:16.052Z,11.70
2018-06-20T10:56:31.812Z,11.03
2018-06-20T10:59:47.341Z,12.70
2018-06-20T11:03:02.960Z,10.80
2018-06-20T11:06:18.708Z,10.70
2018-06-20T11:09:34.453Z,11.80
2018-06-20T11:13:20.475Z,13.38
2018-06-20T11:16:31.383Z,12.53
2018-06-20T11:19:42.167Z,11.45
2018-06-20T11:22:52.883Z,12.10
2018-06-20T11:26:04.297Z,10.78
2018-06-20T11:29:15.660Z,11.53
2018-06-20T11:32:27.268Z,11.48
2018-06-20T11:35:42.696Z,9.03
2018-06-20T11:38:53.417Z,10.25
2018-06-20T11:42:04.046Z,8.35
2018-06-20T11:45:15.065Z,8.63
2018-06-20T11:48:25.547Z,8.95
2018-06-20T11:51:36.940Z,9.68
2018-06-20T11:54:48.500Z,8.28
2018-06-20T11:58:04.470Z,8.55
2018-06-20T12:01:20.940Z,9.78
2018-06-20T12:04:36.674Z,7.20
2018-06-20T12:07:52.490Z,7.37
2018-06-20T12:11:08.149Z,15.20
2018-06-20T12:14:23.687Z,5.22
2018-06-20T12:17:39.699Z,5.17
2018-06-20T12:20:55.744Z,4.95
2018-06-20T12:24:11.646Z,5.53
2018-06-20T12:27:27.214Z,6.47
2018-06-20T12:30:43.312Z,5.65
2018-06-20T12:33:59.091Z,5.55
2018-06-20T12:37:14.879Z,4.67
2018-06-20T12:40:29.688Z,5.37
2018-06-20T12:43:45.635Z,5.45
2018-06-20T12:47:00.357Z,6.97
2018-06-20T12:50:15.138Z,4.12
2018-06-20T12:53:25.865Z,4.45
2018-06-20T12:56:36.580Z,4.55
2018-06-20T12:59:46.858Z,4.53
2018-06-20T13:02:57.319Z,3.58
2018-06-20T13:06:07.915Z,4.87
2018-06-20T13:09:18.664Z,5.17
2018-06-20T13:12:29.381Z,3.70
2018-06-20T13:15:40.009Z,6.10
2018-06-20T13:19:01.280Z,3.10
2018-06-20T13:22:11.957Z,4.92
2018-06-20T13:25:22.656Z,2.83
2018-06-20T13:28:33.301Z,4.40
2018-06-20T13:31:49.171Z,4.25
2018-06-20T13:35:05.309Z,2.80
2018-06-20T13:38:20.876Z,2.98
2018-06-20T13:41:36.650Z,4.35
2018-06-20T13:44:47.464Z,2.70
2018-06-20T13:48:03.384Z,4.10
2018-06-20T13:51:14.381Z,3.02
2018-06-20T13:54:25.413Z,4.33
2018-06-20T13:57:35.986Z,4.20
2018-06-20T14:00:46.696Z,4.72
2018-06-20T14:03:57.425Z,2.75
2018-06-20T14:07:08.128Z,2.50
2018-06-20T14:10:18.743Z,2.02
2018-06-20T14:13:29.317Z,3.50
2018-06-20T14:16:40.053Z,2.12
2018-06-20T14:19:56.114Z,2.35
2018-06-20T14:23:07.260Z,2.55
2018-06-20T14:26:18.032Z,3.12
2018-06-20T14:29:33.567Z,2.12
2018-06-20T14:32:49.590Z,2.37
2018-06-20T14:36:05.533Z,2.25
2018-06-20T14:39:21.137Z,1.60
2018-06-20T14:42:36.930Z,2.20
2018-06-20T14:45:52.672Z,3.40
2018-06-20T14:49:03.991Z,6.10
2018-06-20T14:52:14.661Z,2.72
2018-06-20T14:55:25.455Z,3.95
2018-06-20T14:58:36.244Z,4.85
2018-06-20T15:01:48.133Z,2.70
2018-06-20T15:04:58.381Z,2.87
2018-06-20T15:08:09.102Z,4.15
2018-06-20T15:11:19.509Z,3.02
2018-06-20T15:14:30.420Z,2.15
2018-06-20T15:17:40.749Z,3.60
2018-06-20T15:20:50.930Z,2.10
2018-06-20T15:24:01.681Z,3.08
2018-06-20T15:27:17.573Z,2.55
2018-06-20T15:30:33.276Z,1.90
2018-06-20T15:33:48.994Z,4.25
2018-06-20T15:37:04.495Z,1.80
2018-06-20T15:40:15.301Z,3.98
2018-06-20T15:43:25.908Z,2.52
2018-06-20T15:46:36.596Z,3.77
2018-06-20T15:49:47.305Z,3.52
2018-06-20T15:52:57.972Z,3.80
2018-06-20T15:56:08.688Z,2.65
2018-06-20T15:59:19.456Z,2.50
2018-06-20T16:02:29.984Z,4.95
2018-06-20T16:05:40.780Z,3.87
2018-06-20T16:08:56.651Z,6.97
2018-06-20T16:12:07.353Z,3.72
2018-06-20T16:15:18.575Z,3.30
2018-06-20T16:18:29.307Z,4.40
2018-06-20T16:21:45.368Z,3.27
2018-06-20T16:25:01.120Z,5.10
2018-06-20T16:28:16.791Z,4.17
2018-06-20T16:31:27.481Z,3.95
2018-06-20T16:34:38.213Z,3.42
2018-06-20T16:37:48.932Z,4.00
2018-06-20T16:40:59.464Z,5.00
2018-06-20T16:44:10.237Z,3.98
2018-06-20T16:47:20.948Z,4.12
2018-06-20T16:50:31.896Z,4.10
2018-06-20T16:53:42.585Z,3.02
2018-06-20T16:56:53.321Z,3.35
2018-06-20T17:00:04.542Z,4.87
2018-06-20T17:03:15.257Z,4.72
2018-06-20T17:06:25.866Z,4.33
2018-06-20T17:09:36.383Z,3.77
2018-06-20T17:12:52.256Z,3.47
2018-06-20T17:16:07.845Z,3.47
2018-06-20T17:19:23.737Z,3.75
2018-06-20T17:22:40.205Z,2.62
2018-06-20T17:25:50.950Z,2.62
2018-06-20T17:29:01.444Z,3.27
2018-06-20T17:32:11.999Z,2.02
2018-06-20T17:35:22.738Z,4.85
2018-06-20T17:38:33.633Z,3.30
2018-06-20T17:41:44.480Z,3.25
2018-06-20T17:44:55.132Z,2.25
2018-06-20T17:48:06.142Z,1.12
2018-06-20T17:51:17.279Z,3.37
2018-06-20T17:54:28.016Z,2.65
2018-06-20T17:57:52.280Z,1.82
2018-06-20T18:01:09.415Z,1.07
2018-06-20T18:04:25.556Z,1.70
2018-06-20T18:07:41.169Z,6.28
2018-06-20T18:10:59.228Z,1.72
2018-06-20T18:14:16.041Z,3.37
2018-06-20T18:17:27.051Z,1.17
2018-06-20T18:20:38.990Z,3.02
2018-06-20T18:23:50.300Z,1.75
2018-06-20T18:27:00.851Z,1.85
2018-06-20T18:30:11.377Z,3.37
2018-06-20T18:33:22.358Z,2.65
2018-06-20T18:36:35.407Z,5.12
2018-06-20T18:39:51.763Z,1.45
2018-06-20T18:43:03.210Z,3.10
2018-06-20T18:46:15.015Z,1.35
2018-06-20T18:49:26.440Z,1.60
2018-06-20T18:52:37.151Z,1.55
2018-06-20T18:55:48.470Z,3.35
2018-06-20T18:59:05.044Z,1.80
2018-06-20T19:02:20.698Z,2.15
2018-06-20T19:05:36.903Z,5.87
2018-06-20T19:08:50.262Z,2.95
2018-06-20T19:12:01.388Z,3.90
2018-06-20T19:15:12.151Z,4.40
2018-06-20T19:18:22.572Z,2.55
2018-06-20T19:21:33.173Z,2.92
2018-06-20T19:24:45.340Z,3.10
2018-06-20T19:27:55.842Z,3.37
2018-06-20T19:31:06.294Z,7.45
2018-06-20T19:34:16.882Z,3.92
2018-06-20T19:37:27.691Z,5.40
2018-06-20T19:40:38.513Z,3.83
2018-06-20T19:43:54.993Z,3.98
2018-06-20T19:47:06.348Z,4.37
2018-06-20T19:50:17.166Z,5.58
2018-06-20T19:53:29.206Z,7.20
2018-06-20T19:56:39.530Z,4.70
2018-06-20T19:59:49.960Z,6.35
2018-06-20T20:03:00.393Z,6.08
2018-06-20T20:06:10.839Z,4.65
2018-06-20T20:09:21.691Z,4.22
2018-06-20T20:12:32.977Z,6.47
2018-06-20T20:15:43.610Z,5.75
2018-06-20T20:18:55.125Z,20.23
2018-06-20T20:22:06.362Z,10.85
2018-06-20T20:25:16.749Z,6.10
2018-06-20T20:28:27.388Z,5.05
2018-06-20T20:31:39.248Z,8.65
2018-06-20T20:34:50.169Z,9.78
2018-06-20T20:38:00.699Z,8.63
2018-06-20T20:41:11.244Z,9.53
2018-06-20T20:44:21.775Z,7.17
2018-06-20T20:47:32.088Z,5.55
2018-06-20T20:50:42.873Z,6.42
2018-06-20T20:53:53.348Z,6.25
2018-06-20T20:57:04.243Z,7.83
2018-06-20T21:00:15.186Z,14.93
2018-06-20T21:03:32.481Z,6.92
2018-06-20T21:06:43.577Z,6.12
2018-06-20T21:09:55.394Z,7.58
2018-06-20T21:13:06.152Z,9.05
2018-06-20T21:16:18.845Z,8.05
2018-06-20T21:19:36.091Z,11.03
2018-06-20T21:22:47.352Z,10.10
2018-06-20T21:25:58.144Z,9.80
2018-06-20T21:29:08.796Z,10.90
2018-06-20T21:32:19.665Z,9.88
2018-06-20T21:35:30.227Z,12.53
2018-06-20T21:38:40.694Z,10.80
2018-06-20T21:41:51.475Z,10.48
2018-06-20T21:45:01.871Z,10.23
2018-06-20T21:48:13.700Z,11.38
2018-06-20T21:51:24.684Z,13.48
2018-06-20T21:54:35.424Z,12.25
2018-06-20T21:57:46.897Z,12.80
2018-06-20T22:00:57.632Z,16.35
2018-06-20T22:04:13.200Z,12.82
2018-06-20T22:07:25.406Z,14.43
2018-06-20T22:10:36.747Z,11.65
2018-06-20T22:13:47.593Z,12.53
2018-06-20T22:16:58.068Z,11.57
2018-06-20T22:20:09.968Z,12.58
2018-06-20T22:23:20.635Z,14.05
2018-06-20T22:26:32.112Z,17.37
2018-06-20T22:29:42.976Z,14.60
2018-06-20T22:32:54.251Z,15.30
2018-06-20T22:36:04.798Z,14.85
2018-06-20T22:39:15.443Z,14.20
2018-06-20T22:42:26.982Z,16.15
2018-06-20T22:45:37.768Z,15.75
2018-06-20T22:48:48.762Z,14.50
2018-06-20T22:51:59.344Z,19.48
2018-06-20T22:55:09.824Z,13.90
2018-06-20T22:58:21.146Z,21.82
2018-06-20T23:01:32.111Z,17.27
2018-06-20T23:04:43.164Z,16.52
2018-06-20T23:07:56.747Z,15.28
2018-06-20T23:11:07.997Z,14.23
2018-06-20T23:14:18.793Z,14.43
2018-06-20T23:17:29.212Z,17.32
2018-06-20T23:20:40.265Z,14.80
2018-06-20T23:23:50.780Z,16.82
2018-06-20T23:27:01.255Z,16.57
2018-06-20T23:30:11.749Z,16.30
2018-06-20T23:33:22.551Z,15.20
2018-06-20T23:36:33.433Z,16.65
2018-06-20T23:39:43.804Z,16.17
2018-06-20T23:42:55.500Z,16.15
2018-06-20T23:46:06.419Z,16.20
2018-06-20T23:49:16.856Z,16.25
2018-06-20T23:52:27.327Z,14.28
2018-06-20T23:55:38.085Z,16.15
2018-06-20T23:58:48.803Z,20.48
